DLH007 EDDH-EDDF
Flight info
| Callsign | DLH007 |
|---|---|
| Flight time | N/A |
| Altitude | 34000 |
| Route | AMLUH2G AMLUH M852 DENIX DCT RIMET T157 KERAX KERAX5D |
| Aircraft | A320/M-SDE2E3FGIJ1LORWXYZ/HB1 |
Departure
| Time | 2026-05-01 09:56 |
|---|---|
| Airport | Hamburg Helmut Schmidt Airport (EDDH) |
Arrival
| Time | N/A |
|---|---|
| Airport | Frankfurt Main Airport (EDDF) |
| Time | Latitude | Longitude | Altitude | Speed | Heading |
|---|---|---|---|---|---|
| 2026-05-01 09:27 | 53.63373 | 10.00344 | 49 ft | 0 kts | 86° |
| 2026-05-01 09:46 | 53.63373 | 10.00343 | 48 ft | 1 kts | 86° |
| 2026-05-01 09:46 | 53.63371 | 10.00301 | 47 ft | 4 kts | 86° |
| 2026-05-01 09:46 | 53.63370 | 10.00266 | 43 ft | 4 kts | 102° |
| 2026-05-01 09:47 | 53.63381 | 10.00231 | 47 ft | 4 kts | 156° |
| 2026-05-01 09:47 | 53.63393 | 10.00225 | 47 ft | 0 kts | 175° |
| 2026-05-01 09:51 | 53.63357 | 10.00230 | 47 ft | 7 kts | 176° |
| 2026-05-01 09:51 | 53.63310 | 10.00235 | 48 ft | 6 kts | 176° |
| 2026-05-01 09:51 | 53.63272 | 10.00240 | 48 ft | 5 kts | 176° |
| 2026-05-01 09:51 | 53.63240 | 10.00244 | 48 ft | 5 kts | 176° |
| 2026-05-01 09:52 | 53.63198 | 10.00249 | 48 ft | 9 kts | 176° |
| 2026-05-01 09:52 | 53.63112 | 10.00258 | 48 ft | 15 kts | 176° |
| 2026-05-01 09:52 | 53.63083 | 10.00269 | 47 ft | 0 kts | 158° |
| 2026-05-01 09:53 | 53.63081 | 10.00269 | 48 ft | 2 kts | 161° |
| 2026-05-01 09:54 | 53.63041 | 10.00232 | 48 ft | 10 kts | 216° |
| 2026-05-01 09:54 | 53.62965 | 10.00150 | 46 ft | 14 kts | 212° |
| 2026-05-01 09:54 | 53.62882 | 10.00057 | 48 ft | 15 kts | 222° |
| 2026-05-01 09:54 | 53.62828 | 9.99911 | 46 ft | 15 kts | 249° |
| 2026-05-01 09:55 | 53.62827 | 9.99780 | 45 ft | 10 kts | 328° |
| 2026-05-01 09:55 | 53.62842 | 9.99768 | 45 ft | 0 kts | 333° |
| 2026-05-01 09:55 | 53.62971 | 9.99658 | 44 ft | 60 kts | 333° |
| 2026-05-01 09:55 | 53.63548 | 9.99155 | 47 ft | 125 kts | 332° |
| 2026-05-01 09:56 | 53.64468 | 9.98357 | 68 ft | 173 kts | 334° |
| 2026-05-01 09:56 | 53.65501 | 9.97461 | 843 ft | 162 kts | 333° |
| 2026-05-01 09:56 | 53.66506 | 9.96611 | 1626 ft | 167 kts | 333° |
| 2026-05-01 09:56 | 53.67620 | 9.95674 | 2029 ft | 190 kts | 334° |
| 2026-05-01 09:57 | 53.68878 | 9.94792 | 2517 ft | 209 kts | 347° |
| 2026-05-01 09:57 | 53.70389 | 9.94651 | 2919 ft | 224 kts | 1° |
| 2026-05-01 09:57 | 53.71988 | 9.94782 | 3697 ft | 229 kts | 13° |
| 2026-05-01 09:57 | 53.73320 | 9.96133 | 4524 ft | 227 kts | 54° |
| 2026-05-01 09:58 | 53.73918 | 9.98524 | 5390 ft | 222 kts | 84° |
| 2026-05-01 09:58 | 53.74123 | 10.01077 | 6275 ft | 222 kts | 86° |
| 2026-05-01 09:58 | 53.74024 | 10.03650 | 7106 ft | 223 kts | 106° |
| 2026-05-01 09:58 | 53.73393 | 10.06133 | 7547 ft | 245 kts | 121° |
| 2026-05-01 09:59 | 53.72489 | 10.08762 | 8067 ft | 264 kts | 120° |
| 2026-05-01 09:59 | 53.71566 | 10.11489 | 8905 ft | 270 kts | 120° |
| 2026-05-01 09:59 | 53.70649 | 10.14227 | 9821 ft | 273 kts | 120° |
| 2026-05-01 09:59 | 53.69670 | 10.17039 | 10688 ft | 276 kts | 125° |
| 2026-05-01 10:00 | 53.68371 | 10.19468 | 11350 ft | 288 kts | 139° |
| 2026-05-01 10:00 | 53.66609 | 10.21340 | 11629 ft | 312 kts | 156° |
| 2026-05-01 10:00 | 53.64492 | 10.22394 | 12236 ft | 322 kts | 164° |
| 2026-05-01 10:00 | 53.62305 | 10.23353 | 13005 ft | 326 kts | 163° |
| 2026-05-01 10:01 | 53.60130 | 10.24336 | 13786 ft | 330 kts | 163° |
| 2026-05-01 10:01 | 53.57912 | 10.25356 | 14524 ft | 333 kts | 163° |
| 2026-05-01 10:01 | 53.55657 | 10.26404 | 15186 ft | 337 kts | 163° |
| 2026-05-01 10:01 | 53.53380 | 10.27463 | 15835 ft | 342 kts | 163° |
| 2026-05-01 10:02 | 53.51071 | 10.28530 | 16470 ft | 346 kts | 163° |
| 2026-05-01 10:02 | 53.48737 | 10.29599 | 17113 ft | 350 kts | 163° |
| 2026-05-01 10:02 | 53.46374 | 10.30675 | 17754 ft | 354 kts | 163° |
| 2026-05-01 10:02 | 53.43978 | 10.31765 | 18389 ft | 359 kts | 163° |
| 2026-05-01 10:03 | 53.41557 | 10.32863 | 18987 ft | 362 kts | 163° |
| 2026-05-01 10:03 | 53.39107 | 10.33966 | 19518 ft | 367 kts | 163° |
| 2026-05-01 10:03 | 53.36625 | 10.35075 | 20051 ft | 371 kts | 164° |
| 2026-05-01 10:03 | 53.34117 | 10.36196 | 20614 ft | 374 kts | 164° |
| 2026-05-01 10:04 | 53.31593 | 10.37326 | 21160 ft | 377 kts | 164° |
| 2026-05-01 10:04 | 53.29048 | 10.38467 | 21714 ft | 380 kts | 163° |
| 2026-05-01 10:04 | 53.26477 | 10.39619 | 22243 ft | 384 kts | 163° |
| 2026-05-01 10:04 | 53.23889 | 10.40776 | 22777 ft | 387 kts | 163° |
| 2026-05-01 10:05 | 53.21282 | 10.41940 | 23286 ft | 390 kts | 163° |
| 2026-05-01 10:05 | 53.18651 | 10.43112 | 23800 ft | 393 kts | 164° |
| 2026-05-01 10:05 | 53.16003 | 10.44291 | 24240 ft | 396 kts | 163° |
| 2026-05-01 10:05 | 53.13293 | 10.45223 | 24663 ft | 400 kts | 172° |
| 2026-05-01 10:06 | 53.10503 | 10.45376 | 25080 ft | 404 kts | 182° |
| 2026-05-01 10:06 | 53.07693 | 10.44985 | 25497 ft | 407 kts | 184° |
| 2026-05-01 10:06 | 53.04866 | 10.44585 | 25929 ft | 409 kts | 184° |
| 2026-05-01 10:06 | 53.02025 | 10.44191 | 26336 ft | 411 kts | 183° |
| 2026-05-01 10:07 | 52.99163 | 10.43802 | 26742 ft | 413 kts | 184° |
| 2026-05-01 10:07 | 52.96288 | 10.43416 | 27150 ft | 416 kts | 184° |
| 2026-05-01 10:07 | 52.93395 | 10.43024 | 27551 ft | 418 kts | 184° |
| 2026-05-01 10:07 | 52.90491 | 10.42628 | 27939 ft | 420 kts | 184° |
| 2026-05-01 10:08 | 52.84626 | 10.41821 | 28709 ft | 425 kts | 184° |
| 2026-05-01 10:08 | 52.81671 | 10.41418 | 29082 ft | 427 kts | 184° |
| 2026-05-01 10:08 | 52.78700 | 10.41013 | 29457 ft | 430 kts | 184° |
| 2026-05-01 10:09 | 52.75711 | 10.40611 | 29805 ft | 432 kts | 184° |
| 2026-05-01 10:09 | 52.72705 | 10.40209 | 30163 ft | 435 kts | 183° |
| 2026-05-01 10:09 | 52.69683 | 10.39803 | 30513 ft | 437 kts | 183° |
| 2026-05-01 10:09 | 52.66644 | 10.39397 | 30802 ft | 439 kts | 184° |
| 2026-05-01 10:10 | 52.63630 | 10.38992 | 31091 ft | 441 kts | 184° |
| 2026-05-01 10:10 | 52.60566 | 10.38579 | 31355 ft | 444 kts | 184° |
| 2026-05-01 10:10 | 52.54380 | 10.37738 | 31868 ft | 449 kts | 184° |
| 2026-05-01 10:11 | 52.51259 | 10.37317 | 32152 ft | 450 kts | 184° |
| 2026-05-01 10:11 | 52.48140 | 10.36897 | 32537 ft | 449 kts | 184° |
| 2026-05-01 10:11 | 52.45021 | 10.36483 | 32880 ft | 450 kts | 184° |
| 2026-05-01 10:11 | 52.41902 | 10.36070 | 33214 ft | 450 kts | 184° |
| 2026-05-01 10:12 | 52.38778 | 10.35656 | 33406 ft | 449 kts | 184° |
| 2026-05-01 10:12 | 52.36732 | 10.35384 | 33435 ft | 440 kts | 184° |
| 2026-05-01 10:12 | 52.29782 | 10.34456 | 33094 ft | 419 kts | 184° |
| 2026-05-01 10:13 | 52.26898 | 10.34074 | 32161 ft | 417 kts | 184° |
| 2026-05-01 10:13 | 52.23945 | 10.33687 | 30261 ft | 435 kts | 184° |
| 2026-05-01 10:13 | 52.20882 | 10.33286 | 28090 ft | 449 kts | 184° |
| 2026-05-01 10:14 | 52.14521 | 10.32309 | 24108 ft | 467 kts | 191° |
| 2026-05-01 10:14 | 52.11495 | 10.30511 | 22539 ft | 462 kts | 208° |
| 2026-05-01 10:14 | 52.08945 | 10.27419 | 21139 ft | 456 kts | 225° |
| 2026-05-01 10:14 | 52.07075 | 10.23322 | 19799 ft | 450 kts | 242° |
| 2026-05-01 10:15 | 52.06031 | 10.18583 | 18501 ft | 445 kts | 259° |
| 2026-05-01 10:15 | 52.05872 | 10.13618 | 17085 ft | 438 kts | 273° |
| 2026-05-01 10:15 | 52.06010 | 10.10351 | 16144 ft | 436 kts | 274° |